createdAt,value
2023-02-26T00:02:59.303Z,0.12
2023-02-26T00:08:01.111Z,0.07
2023-02-26T00:13:07.220Z,0.05
2023-02-26T00:18:15.826Z,0.04
2023-02-26T00:23:18.637Z,0.01
2023-02-26T00:28:20.735Z,-0.01
2023-02-26T00:33:22.800Z,-0.03
2023-02-26T00:38:25.037Z,-0.07
2023-02-26T00:43:27.061Z,-0.11
2023-02-26T00:48:47.580Z,-0.14
2023-02-26T00:54:01.721Z,-0.17
2023-02-26T00:59:04.438Z,-0.19
2023-02-26T01:04:06.499Z,-0.21
2023-02-26T01:09:08.278Z,-0.22
2023-02-26T01:14:10.600Z,-0.22
2023-02-26T01:19:25.594Z,-0.24
2023-02-26T01:24:30.853Z,-0.23
2023-02-26T01:29:33.768Z,-0.25
2023-02-26T01:34:55.121Z,-0.28
2023-02-26T01:40:06.259Z,-0.31
2023-02-26T01:45:16.516Z,-0.31
2023-02-26T01:50:21.630Z,-0.33
2023-02-26T01:55:26.794Z,-0.32
2023-02-26T02:00:31.302Z,-0.32
2023-02-26T02:05:56.824Z,-0.32
2023-02-26T02:10:58.579Z,-0.32
2023-02-26T02:16:11.763Z,-0.32
2023-02-26T02:21:47.584Z,-0.34
2023-02-26T02:26:52.203Z,-0.40
2023-02-26T02:32:30.912Z,-0.41
2023-02-26T02:37:40.054Z,-0.48
2023-02-26T02:42:47.580Z,-0.49
2023-02-26T02:47:57.917Z,-0.47
2023-02-26T02:53:11.058Z,-0.41
2023-02-26T02:58:21.270Z,-0.34
2023-02-26T03:03:41.001Z,-0.30
2023-02-26T03:08:44.104Z,-0.31
2023-02-26T03:13:47.362Z,-0.32
2023-02-26T03:19:09.235Z,-0.35
2023-02-26T03:24:22.107Z,-0.38
2023-02-26T03:29:24.558Z,-0.40
2023-02-26T03:34:41.379Z,-0.41
2023-02-26T03:39:54.305Z,-0.41
2023-02-26T03:45:04.908Z,-0.42
2023-02-26T03:50:15.703Z,-0.42
2023-02-26T03:55:30.441Z,-0.38
2023-02-26T04:00:59.032Z,-0.39
2023-02-26T04:06:02.557Z,-0.35
2023-02-26T04:11:10.176Z,-0.47
2023-02-26T04:16:13.404Z,-0.61
2023-02-26T04:21:20.290Z,-0.74
2023-02-26T04:26:22.685Z,-0.90
2023-02-26T04:31:24.912Z,-0.96
2023-02-26T04:36:27.196Z,-0.98
2023-02-26T04:41:29.153Z,-0.95
2023-02-26T04:46:32.071Z,-0.83
2023-02-26T04:51:33.798Z,-0.71
2023-02-26T04:56:35.544Z,-0.69
2023-02-26T05:06:12.869Z,-0.58
2023-02-26T05:11:14.616Z,-0.63
2023-02-26T05:16:16.347Z,-0.67
2023-02-26T05:21:18.083Z,-0.66
2023-02-26T05:26:20.049Z,-0.72
2023-02-26T05:31:21.977Z,-0.71
2023-02-26T05:36:24.165Z,-0.67
2023-02-26T05:41:26.135Z,-0.76
2023-02-26T05:46:28.422Z,-0.74
2023-02-26T05:51:32.553Z,-0.72
2023-02-26T05:56:34.256Z,-0.69
2023-02-26T06:01:37.511Z,-0.67
2023-02-26T06:06:39.255Z,-0.69
2023-02-26T06:11:41.021Z,-0.74
2023-02-26T06:16:42.765Z,-0.75
2023-02-26T06:21:44.506Z,-0.71
2023-02-26T06:26:46.198Z,-0.65
2023-02-26T06:31:48.331Z,-0.55
2023-02-26T06:36:50.101Z,-0.46
2023-02-26T06:41:52.175Z,-0.37
2023-02-26T06:46:54.152Z,-0.27
2023-02-26T06:51:55.824Z,-0.20
2023-02-26T06:56:57.865Z,-0.12
2023-02-26T07:01:59.572Z,0.03
2023-02-26T07:07:01.282Z,0.15
2023-02-26T07:12:03.552Z,0.12
2023-02-26T07:17:05.383Z,0.13
2023-02-26T07:22:07.080Z,0.16
2023-02-26T07:27:09.603Z,0.22
2023-02-26T07:32:11.785Z,0.36
2023-02-26T07:37:13.845Z,0.37
2023-02-26T07:42:15.588Z,0.45
2023-02-26T07:47:18.007Z,0.50
2023-02-26T07:57:50.908Z,0.82
2023-02-26T08:02:52.727Z,0.95
2023-02-26T08:07:54.417Z,0.91
2023-02-26T08:12:56.089Z,0.75
2023-02-26T08:17:58.217Z,0.67
2023-02-26T08:22:59.834Z,0.69
2023-02-26T08:28:03.235Z,0.88
2023-02-26T08:33:05.057Z,1.02
2023-02-26T08:38:06.739Z,1.25
2023-02-26T08:43:08.393Z,1.26
2023-02-26T08:48:10.974Z,1.31
2023-02-26T08:53:12.825Z,1.45
2023-02-26T08:58:14.618Z,1.72
2023-02-26T09:03:16.441Z,1.80
2023-02-26T09:08:20.581Z,2.46
2023-02-26T09:13:22.200Z,2.40
2023-02-26T09:18:24.292Z,2.03
2023-02-26T09:23:26.130Z,2.24
2023-02-26T09:28:27.903Z,2.47
2023-02-26T09:33:29.705Z,2.31
2023-02-26T09:38:31.451Z,2.29
2023-02-26T09:43:52.123Z,2.49
2023-02-26T09:49:03.681Z,2.88
2023-02-26T09:54:17.036Z,2.81
2023-02-26T09:59:19.227Z,2.95
2023-02-26T10:04:43.970Z,2.78
2023-02-26T10:09:57.047Z,2.49
2023-02-26T10:15:20.934Z,2.21
2023-02-26T10:20:55.440Z,1.87
2023-02-26T10:26:19.539Z,1.62
2023-02-26T10:31:28.317Z,1.55
2023-02-26T10:36:59.391Z,1.95
2023-02-26T10:42:10.486Z,2.34
2023-02-26T10:47:34.867Z,2.28
2023-02-26T10:52:36.792Z,1.85
2023-02-26T10:57:44.143Z,1.61
2023-02-26T11:02:48.854Z,1.41
2023-02-26T11:07:55.925Z,1.32
2023-02-26T11:12:58.796Z,1.33
2023-02-26T11:18:01.852Z,1.60
2023-02-26T11:23:06.988Z,1.85
2023-02-26T11:28:30.204Z,2.28
2023-02-26T11:33:39.151Z,2.46
2023-02-26T11:38:44.367Z,2.44
2023-02-26T12:02:40.251Z,3.09
2023-02-26T12:07:42.109Z,3.27
2023-02-26T12:13:18.987Z,3.23
2023-02-26T12:18:59.422Z,3.00
2023-02-26T12:24:29.822Z,2.74
2023-02-26T12:30:13.920Z,2.71
2023-02-26T12:35:52.595Z,2.75
2023-02-26T12:41:42.642Z,2.25
2023-02-26T12:46:54.887Z,1.86
2023-02-26T12:52:30.793Z,1.58
2023-02-26T12:58:10.495Z,1.38
2023-02-26T13:03:49.232Z,1.09
2023-02-26T13:09:06.259Z,0.94
2023-02-26T13:14:23.223Z,0.81
2023-02-26T13:19:51.347Z,0.77
2023-02-26T13:25:00.267Z,0.86
2023-02-26T13:30:27.388Z,1.00
2023-02-26T13:35:37.560Z,1.23
2023-02-26T13:40:48.138Z,1.29
2023-02-26T13:46:14.461Z,1.37
2023-02-26T13:51:33.837Z,1.29
2023-02-26T13:56:35.799Z,1.22
2023-02-26T14:01:53.675Z,1.26
2023-02-26T14:07:00.101Z,1.29
2023-02-26T14:12:15.785Z,1.31
2023-02-26T14:17:18.683Z,1.21
2023-02-26T14:22:35.082Z,1.15
2023-02-26T14:27:39.783Z,1.10
2023-02-26T14:32:50.298Z,1.05
2023-02-26T14:38:07.919Z,0.96
2023-02-26T14:43:21.780Z,0.91
2023-02-26T14:48:30.201Z,0.89
2023-02-26T14:53:43.905Z,0.87
2023-02-26T14:58:54.813Z,0.83
2023-02-26T15:04:05.812Z,0.84
2023-02-26T15:09:27.131Z,0.89
2023-02-26T15:14:35.894Z,0.96
2023-02-26T15:20:09.872Z,0.99
2023-02-26T15:25:36.204Z,1.05
2023-02-26T15:30:38.375Z,1.03
2023-02-26T15:35:43.816Z,1.00
2023-02-26T15:40:46.139Z,0.99
2023-02-26T15:45:50.028Z,1.00
2023-02-26T15:50:56.110Z,1.00
2023-02-26T15:56:00.297Z,0.97
2023-02-26T16:01:03.960Z,0.91
2023-02-26T16:06:11.167Z,0.90
2023-02-26T16:11:15.598Z,0.95
2023-02-26T16:16:40.911Z,0.92
2023-02-26T16:21:43.879Z,0.91
2023-02-26T16:26:51.871Z,0.87
2023-02-26T16:31:56.133Z,0.85
2023-02-26T16:36:58.574Z,0.82
2023-02-26T16:42:37.866Z,0.79
2023-02-26T16:47:40.353Z,0.77
2023-02-26T16:52:42.111Z,0.73
2023-02-26T16:57:47.773Z,0.73
2023-02-26T17:02:50.040Z,0.70
2023-02-26T17:08:05.455Z,0.67
2023-02-26T17:13:26.560Z,0.59
2023-02-26T17:18:30.678Z,0.52
2023-02-26T17:23:37.195Z,0.45
2023-02-26T17:28:42.691Z,0.40
2023-02-26T17:33:45.232Z,0.42
2023-02-26T17:38:48.580Z,0.46
2023-02-26T17:43:50.348Z,0.51
2023-02-26T17:48:52.012Z,0.54
2023-02-26T17:53:56.100Z,0.54
2023-02-26T17:58:59.397Z,0.56
2023-02-26T18:04:01.964Z,0.57
2023-02-26T18:09:06.018Z,0.57
2023-02-26T18:14:09.489Z,0.57
2023-02-26T18:19:14.004Z,0.63
2023-02-26T18:24:16.790Z,0.68
2023-02-26T18:29:19.041Z,0.75
2023-02-26T18:34:20.712Z,0.76
2023-02-26T18:39:25.288Z,0.78
2023-02-26T18:44:28.765Z,0.71
2023-02-26T18:49:30.599Z,0.81
2023-02-26T18:54:32.310Z,0.91
2023-02-26T18:59:34.832Z,0.98
2023-02-26T19:04:36.913Z,0.96
2023-02-26T19:09:38.586Z,0.85
2023-02-26T19:14:40.257Z,0.75
2023-02-26T19:19:42.547Z,0.66
2023-02-26T19:24:44.463Z,0.62
2023-02-26T19:29:46.622Z,0.60
2023-02-26T19:34:48.280Z,0.52
2023-02-26T19:39:50.099Z,0.55
2023-02-26T19:44:52.049Z,0.71
2023-02-26T19:49:54.031Z,0.88
2023-02-26T19:54:55.762Z,0.92
2023-02-26T19:59:59.801Z,0.86
2023-02-26T20:05:01.952Z,0.76
2023-02-26T20:10:04.288Z,0.69
2023-02-26T20:15:08.256Z,0.72
2023-02-26T20:20:12.091Z,0.77
2023-02-26T20:25:15.000Z,0.84
2023-02-26T20:30:17.023Z,0.88
2023-02-26T20:35:19.278Z,0.78
2023-02-26T20:40:21.177Z,0.73
2023-02-26T20:45:22.954Z,0.78
2023-02-26T20:50:25.455Z,0.81
2023-02-26T20:55:27.348Z,0.82
2023-02-26T21:00:29.455Z,0.84
2023-02-26T21:05:31.336Z,0.78
2023-02-26T21:10:33.274Z,0.76
2023-02-26T21:15:35.695Z,0.75
2023-02-26T21:20:37.424Z,0.75
2023-02-26T21:25:40.101Z,0.76
2023-02-26T21:30:41.852Z,0.74
2023-02-26T21:35:43.571Z,0.73
2023-02-26T21:40:45.677Z,0.71
2023-02-26T21:45:50.400Z,0.64
2023-02-26T21:50:52.440Z,0.62
2023-02-26T21:55:54.645Z,0.59
2023-02-26T22:00:59.372Z,0.55
2023-02-26T22:06:01.131Z,0.55
2023-02-26T22:11:02.855Z,0.54
2023-02-26T22:16:04.809Z,0.50
2023-02-26T22:21:06.989Z,0.52
2023-02-26T22:26:08.739Z,0.51
2023-02-26T22:31:10.547Z,0.51
2023-02-26T22:36:12.296Z,0.56
2023-02-26T22:41:14.127Z,0.56
2023-02-26T22:46:17.212Z,0.53
2023-02-26T22:51:18.972Z,0.48
2023-02-26T22:56:20.626Z,0.45
2023-02-26T23:01:22.646Z,0.45
2023-02-26T23:06:24.348Z,0.45
2023-02-26T23:11:26.263Z,0.43
2023-02-26T23:16:28.078Z,0.38
2023-02-26T23:21:30.928Z,0.34
2023-02-26T23:26:33.396Z,0.29
2023-02-26T23:31:35.209Z,0.25
2023-02-26T23:36:37.298Z,0.21
2023-02-26T23:41:39.531Z,0.15
2023-02-26T23:46:41.296Z,0.10
2023-02-26T23:51:44.596Z,0.02
2023-02-26T23:56:47.398Z,-0.03
